createdAt,value
2022-11-10T00:01:05.871Z,15.40
2022-11-10T00:03:33.398Z,15.42
2022-11-10T00:06:02.922Z,15.40
2022-11-10T00:08:30.396Z,15.42
2022-11-10T00:10:58.315Z,15.40
2022-11-10T00:13:28.116Z,14.65
2022-11-10T00:16:13.448Z,15.06
2022-11-10T00:18:40.935Z,15.37
2022-11-10T00:21:09.245Z,14.95
2022-11-10T00:23:36.841Z,15.00
2022-11-10T00:26:04.279Z,15.36
2022-11-10T00:28:33.123Z,14.98
2022-11-10T00:31:00.626Z,15.27
2022-11-10T00:33:28.086Z,15.34
2022-11-10T00:35:55.536Z,15.35
2022-11-10T00:38:22.988Z,15.34
2022-11-10T00:40:50.429Z,15.34
2022-11-10T00:43:21.323Z,15.34
2022-11-10T00:45:54.126Z,15.34
2022-11-10T00:48:21.585Z,15.33
2022-11-10T00:50:49.016Z,15.26
2022-11-10T00:53:16.481Z,15.33
2022-11-10T00:55:44.076Z,14.92
2022-11-10T00:58:11.523Z,15.32
2022-11-10T01:00:38.957Z,15.04
2022-11-10T01:03:07.754Z,15.31
2022-11-10T01:05:37.163Z,14.92
2022-11-10T01:08:04.912Z,14.82
2022-11-10T01:10:32.363Z,15.31
2022-11-10T01:12:59.848Z,15.18
2022-11-10T01:15:28.139Z,14.71
2022-11-10T01:17:56.040Z,14.85
2022-11-10T01:20:24.879Z,15.31
2022-11-10T01:22:52.368Z,15.29
2022-11-10T01:25:19.828Z,15.27
2022-11-10T01:27:47.297Z,15.30
2022-11-10T01:30:15.012Z,14.84
2022-11-10T01:32:42.440Z,15.27
2022-11-10T01:35:10.218Z,15.27
2022-11-10T01:37:40.489Z,15.26
2022-11-10T01:40:09.539Z,15.25
2022-11-10T01:42:43.759Z,15.29
2022-11-10T01:45:41.012Z,15.29
2022-11-10T01:48:08.828Z,15.26
2022-11-10T01:50:38.654Z,15.25
2022-11-10T01:53:09.585Z,15.25
2022-11-10T01:55:37.645Z,15.24
2022-11-10T01:58:05.095Z,15.26
2022-11-10T02:00:32.599Z,15.25
2022-11-10T02:03:02.631Z,15.26
2022-11-10T02:05:30.063Z,15.25
2022-11-10T02:07:57.622Z,15.23
2022-11-10T02:10:26.396Z,15.26
2022-11-10T02:12:53.906Z,15.25
2022-11-10T02:15:21.445Z,15.25
2022-11-10T02:17:48.978Z,15.27
2022-11-10T02:20:18.985Z,15.25
2022-11-10T02:22:47.750Z,15.26
2022-11-10T02:25:17.253Z,15.24
2022-11-10T02:27:44.697Z,15.21
2022-11-10T02:30:13.315Z,15.04
2022-11-10T02:32:40.785Z,15.21
2022-11-10T02:35:09.036Z,15.22
2022-11-10T02:37:36.496Z,15.19
2022-11-10T02:40:06.258Z,15.20
2022-11-10T02:42:33.749Z,15.19
2022-11-10T02:45:01.186Z,15.13
2022-11-10T02:47:28.668Z,15.16
2022-11-10T02:49:56.097Z,15.17
2022-11-10T02:52:23.584Z,14.95
2022-11-10T02:54:51.065Z,15.13
2022-11-10T02:57:19.851Z,15.10
2022-11-10T02:59:47.798Z,15.18
2022-11-10T03:02:15.337Z,15.17
2022-11-10T03:04:43.168Z,15.18
2022-11-10T03:07:10.638Z,15.17
2022-11-10T03:09:38.232Z,15.16
2022-11-10T03:12:05.863Z,15.15
2022-11-10T03:14:34.652Z,15.16
2022-11-10T03:17:02.068Z,15.16
2022-11-10T03:19:29.504Z,15.13
2022-11-10T03:21:57.376Z,15.15
2022-11-10T03:24:24.854Z,15.15
2022-11-10T03:26:52.306Z,15.16
2022-11-10T03:29:19.749Z,15.15
2022-11-10T03:31:48.878Z,15.15
2022-11-10T03:34:16.319Z,15.13
2022-11-10T03:36:43.748Z,15.06
2022-11-10T03:39:11.174Z,14.56
2022-11-10T03:41:38.607Z,15.12
2022-11-10T03:44:06.388Z,15.12
2022-11-10T03:46:33.859Z,15.10
2022-11-10T03:49:02.632Z,15.12
2022-11-10T03:51:30.053Z,15.03
2022-11-10T03:53:57.501Z,15.09
2022-11-10T03:56:24.954Z,15.09
2022-11-10T03:58:52.445Z,15.08
2022-11-10T04:01:19.926Z,15.08
2022-11-10T04:03:51.287Z,15.08
2022-11-10T04:06:38.305Z,15.07
2022-11-10T04:09:06.139Z,15.07
2022-11-10T04:11:51.120Z,15.05
2022-11-10T04:14:36.408Z,15.08
2022-11-10T04:17:03.850Z,15.06
2022-11-10T04:19:31.370Z,15.06
2022-11-10T04:22:00.180Z,15.00
2022-11-10T04:24:27.680Z,15.01
2022-11-10T04:26:55.114Z,15.05
2022-11-10T04:29:22.608Z,14.58
2022-11-10T04:31:50.069Z,15.04
2022-11-10T04:34:17.532Z,15.06
2022-11-10T04:36:46.120Z,15.06
2022-11-10T04:39:14.896Z,15.04
2022-11-10T04:41:42.316Z,15.05
2022-11-10T04:44:09.882Z,15.01
2022-11-10T04:46:38.345Z,15.05
2022-11-10T04:49:05.899Z,15.04
2022-11-10T04:51:34.173Z,15.04
2022-11-10T04:54:01.785Z,15.05
2022-11-10T04:56:30.572Z,15.04
2022-11-10T04:58:58.057Z,15.04
2022-11-10T05:01:26.785Z,14.80
2022-11-10T05:03:54.436Z,15.03
2022-11-10T05:06:21.886Z,15.04
2022-11-10T05:08:49.374Z,15.03
2022-11-10T05:11:16.909Z,14.59
2022-11-10T05:13:45.834Z,14.95
2022-11-10T05:16:13.314Z,15.02
2022-11-10T05:18:40.795Z,15.03
2022-11-10T05:21:08.223Z,15.02
2022-11-10T05:23:38.738Z,15.02
2022-11-10T05:26:06.502Z,15.01
2022-11-10T05:28:33.994Z,15.02
2022-11-10T05:31:02.742Z,15.02
2022-11-10T05:33:30.316Z,15.00
2022-11-10T05:35:57.800Z,15.01
2022-11-10T05:38:25.386Z,14.55
2022-11-10T05:40:52.893Z,15.01
2022-11-10T05:43:20.638Z,15.01
2022-11-10T05:45:48.298Z,14.97
2022-11-10T05:48:17.088Z,14.99
2022-11-10T05:50:44.610Z,14.78
2022-11-10T05:53:12.120Z,14.84
2022-11-10T05:55:39.568Z,14.98
2022-11-10T05:58:07.396Z,14.97
2022-11-10T06:00:35.385Z,14.94
2022-11-10T06:03:03.734Z,14.97
2022-11-10T06:05:33.397Z,14.72
2022-11-10T06:08:00.884Z,14.97
2022-11-10T06:10:28.465Z,14.97
2022-11-10T06:12:55.931Z,14.93
2022-11-10T06:15:23.484Z,14.96
2022-11-10T06:17:51.040Z,14.99
2022-11-10T06:20:18.542Z,14.63
2022-11-10T06:23:01.374Z,14.97
2022-11-10T06:25:29.531Z,14.59
2022-11-10T06:27:57.038Z,14.95
2022-11-10T06:30:24.497Z,14.95
2022-11-10T06:32:51.959Z,14.94
2022-11-10T06:35:19.530Z,14.95
2022-11-10T06:37:57.145Z,14.95
2022-11-10T06:40:24.598Z,14.96
2022-11-10T06:42:52.059Z,14.93
2022-11-10T06:45:19.514Z,14.92
2022-11-10T06:47:46.958Z,14.97
2022-11-10T06:50:14.838Z,15.02
2022-11-10T06:52:42.279Z,15.03
2022-11-10T06:55:11.364Z,15.04
2022-11-10T06:57:39.171Z,15.10
2022-11-10T07:00:08.013Z,15.15
2022-11-10T07:02:35.491Z,15.19
2022-11-10T07:05:02.945Z,15.19
2022-11-10T07:07:30.385Z,15.23
2022-11-10T07:10:00.548Z,15.22
2022-11-10T07:12:32.948Z,15.20
2022-11-10T07:15:00.368Z,15.15
2022-11-10T07:17:27.822Z,15.10
2022-11-10T07:19:55.417Z,15.12
2022-11-10T07:22:23.422Z,15.16
2022-11-10T07:24:50.889Z,15.17
2022-11-10T07:27:18.377Z,15.19
2022-11-10T07:29:47.143Z,15.23
2022-11-10T07:32:14.761Z,15.28
2022-11-10T07:34:42.227Z,15.31
2022-11-10T07:37:09.686Z,15.34
2022-11-10T07:39:37.172Z,15.37
2022-11-10T07:42:04.615Z,15.48
2022-11-10T07:44:32.055Z,15.53
2022-11-10T07:47:00.828Z,15.60
2022-11-10T07:49:28.283Z,15.62
2022-11-10T07:51:55.710Z,15.69
2022-11-10T07:54:23.165Z,15.67
2022-11-10T07:56:50.642Z,15.71
2022-11-10T07:59:18.118Z,15.74
2022-11-10T08:01:46.537Z,15.83
2022-11-10T08:04:15.336Z,15.87
2022-11-10T08:06:42.897Z,15.89
2022-11-10T08:09:10.443Z,15.92
2022-11-10T08:11:38.181Z,15.93
2022-11-10T08:14:05.633Z,15.96
2022-11-10T08:16:33.661Z,15.98
2022-11-10T08:19:01.110Z,16.06
2022-11-10T08:21:29.954Z,16.27
2022-11-10T08:23:57.407Z,16.48
2022-11-10T08:26:24.869Z,16.65
2022-11-10T08:28:52.341Z,16.77
2022-11-10T08:31:19.808Z,16.60
2022-11-10T08:33:47.291Z,16.63
2022-11-10T08:36:14.959Z,16.56
2022-11-10T08:38:43.778Z,16.55
2022-11-10T08:41:11.224Z,16.56
2022-11-10T08:43:38.717Z,16.55
2022-11-10T08:46:06.461Z,16.45
2022-11-10T08:48:33.913Z,16.37
2022-11-10T08:51:01.693Z,15.90
2022-11-10T08:53:29.135Z,16.20
2022-11-10T08:56:00.364Z,16.13
2022-11-10T08:58:27.832Z,15.66
2022-11-10T09:00:55.455Z,15.86
2022-11-10T09:03:24.648Z,16.02
2022-11-10T09:05:58.099Z,16.05
2022-11-10T09:08:26.145Z,16.03
2022-11-10T09:10:53.634Z,16.03
2022-11-10T09:13:26.275Z,16.04
2022-11-10T09:15:56.761Z,16.01
2022-11-10T09:18:24.259Z,16.11
2022-11-10T09:20:51.713Z,16.10
2022-11-10T09:23:19.787Z,16.21
2022-11-10T09:25:50.408Z,16.28
2022-11-10T09:28:18.062Z,16.31
2022-11-10T09:30:47.670Z,16.03
2022-11-10T09:33:15.162Z,16.36
2022-11-10T09:35:42.904Z,16.38
2022-11-10T09:38:11.741Z,16.08
2022-11-10T09:40:48.628Z,16.13
2022-11-10T09:43:18.059Z,16.45
2022-11-10T09:45:47.934Z,16.25
2022-11-10T09:48:17.295Z,16.51
2022-11-10T09:50:46.359Z,16.58
2022-11-10T09:53:16.469Z,16.66
2022-11-10T09:55:44.648Z,16.68
2022-11-10T09:58:12.580Z,16.68
2022-11-10T10:00:40.048Z,16.74
2022-11-10T10:03:09.998Z,16.77
2022-11-10T10:05:47.134Z,16.62
2022-11-10T10:08:16.801Z,16.85
2022-11-10T10:10:45.654Z,16.85
2022-11-10T10:13:28.654Z,16.86
2022-11-10T10:16:04.513Z,16.81
2022-11-10T10:18:35.935Z,16.83
2022-11-10T10:21:23.598Z,16.86
2022-11-10T10:24:09.468Z,16.89
2022-11-10T10:26:39.821Z,16.96
2022-11-10T10:29:09.087Z,17.02
2022-11-10T10:31:37.521Z,16.67
2022-11-10T10:34:13.005Z,17.13
2022-11-10T10:36:40.604Z,17.15
2022-11-10T10:39:09.093Z,17.14
2022-11-10T10:41:36.542Z,17.17
2022-11-10T10:44:17.190Z,17.11
2022-11-10T10:46:46.692Z,17.06
2022-11-10T10:49:33.475Z,17.11
2022-11-10T10:52:05.712Z,16.67
2022-11-10T10:54:33.899Z,16.92
2022-11-10T10:57:05.738Z,17.26
2022-11-10T10:59:33.400Z,17.29
2022-11-10T11:02:00.936Z,17.21
2022-11-10T11:04:38.736Z,17.23
2022-11-10T11:07:07.200Z,16.86
2022-11-10T11:09:40.764Z,16.94
2022-11-10T11:12:09.344Z,16.74
2022-11-10T11:14:38.651Z,16.94
2022-11-10T11:17:13.815Z,16.53
2022-11-10T11:19:42.706Z,17.00
2022-11-10T11:22:31.993Z,17.03
2022-11-10T11:25:04.521Z,17.06
2022-11-10T11:27:35.278Z,16.80
2022-11-10T11:30:08.969Z,17.13
2022-11-10T11:33:21.889Z,17.11
2022-11-10T11:35:54.375Z,16.90
2022-11-10T11:38:25.523Z,16.80
2022-11-10T11:40:57.265Z,16.81
2022-11-10T11:43:46.898Z,16.80
2022-11-10T11:46:18.404Z,16.77
2022-11-10T11:48:50.980Z,16.77
2022-11-10T11:51:23.375Z,16.79
2022-11-10T11:54:07.587Z,16.79
2022-11-10T11:56:36.028Z,16.79
2022-11-10T11:59:10.942Z,16.81
2022-11-10T12:01:45.460Z,16.83
2022-11-10T12:04:40.272Z,16.84
2022-11-10T12:07:21.927Z,16.77
2022-11-10T12:09:50.333Z,16.14
2022-11-10T12:12:26.151Z,16.72
2022-11-10T12:14:56.429Z,16.76
2022-11-10T12:17:28.338Z,16.87
2022-11-10T12:19:59.365Z,16.86
2022-11-10T12:22:32.358Z,16.84
2022-11-10T12:25:06.451Z,16.84
2022-11-10T12:27:34.898Z,16.83
2022-11-10T12:30:03.812Z,16.60
2022-11-10T12:32:33.160Z,16.80
2022-11-10T12:35:02.593Z,16.65
2022-11-10T12:37:33.660Z,16.76
2022-11-10T12:40:03.620Z,16.76
2022-11-10T12:42:32.647Z,16.73
2022-11-10T12:45:01.611Z,16.75
2022-11-10T12:47:31.510Z,16.74
2022-11-10T12:50:11.535Z,16.66
2022-11-10T12:52:41.734Z,16.67
2022-11-10T12:55:13.562Z,16.68
2022-11-10T12:57:41.034Z,16.74
2022-11-10T13:00:27.700Z,16.78
2022-11-10T13:02:56.535Z,16.78
2022-11-10T13:05:32.818Z,16.78
2022-11-10T13:08:25.249Z,16.80
2022-11-10T13:10:55.709Z,16.39
2022-11-10T13:13:24.408Z,16.81
2022-11-10T13:15:56.518Z,16.84
2022-11-10T13:18:53.572Z,16.86
2022-11-10T13:21:37.617Z,16.84
2022-11-10T13:24:22.235Z,16.85
2022-11-10T13:26:52.550Z,16.83
2022-11-10T13:29:28.356Z,16.38
2022-11-10T13:31:57.490Z,16.56
2022-11-10T13:34:32.567Z,16.81
2022-11-10T13:37:00.022Z,16.84
2022-11-10T13:41:51.522Z,16.76
2022-11-10T13:44:25.683Z,16.76
2022-11-10T13:47:00.482Z,16.68
2022-11-10T13:49:38.617Z,16.76
2022-11-10T13:52:11.388Z,16.76
2022-11-10T13:55:26.588Z,16.77
2022-11-10T13:57:59.654Z,16.77
2022-11-10T14:00:28.441Z,16.47
2022-11-10T14:02:56.996Z,16.78
2022-11-10T14:06:02.697Z,16.79
2022-11-10T14:08:34.028Z,16.76
2022-11-10T14:11:03.189Z,16.59
2022-11-10T14:13:36.524Z,16.74
2022-11-10T14:16:04.199Z,16.72
2022-11-10T14:18:39.523Z,16.73
2022-11-10T14:21:07.385Z,16.71
2022-11-10T14:23:37.229Z,16.42
2022-11-10T14:26:06.520Z,16.71
2022-11-10T14:28:37.445Z,16.67
2022-11-10T14:31:04.894Z,16.68
2022-11-10T14:33:32.421Z,16.68
2022-11-10T14:36:01.348Z,16.41
2022-11-10T14:38:31.236Z,16.46
2022-11-10T14:40:59.818Z,16.78
2022-11-10T14:43:28.221Z,16.84
2022-11-10T14:45:57.191Z,16.86
2022-11-10T14:48:25.891Z,16.61
2022-11-10T14:50:53.692Z,16.47
2022-11-10T14:53:22.248Z,16.46
2022-11-10T14:55:54.470Z,16.78
2022-11-10T14:58:24.970Z,16.38
2022-11-10T15:00:52.555Z,16.71
2022-11-10T15:03:22.858Z,16.40
2022-11-10T15:05:50.360Z,16.66
2022-11-10T15:08:18.204Z,16.65
2022-11-10T15:10:47.600Z,16.63
2022-11-10T15:13:37.411Z,16.63
2022-11-10T15:16:26.820Z,16.44
2022-11-10T15:18:57.349Z,16.58
2022-11-10T15:21:28.886Z,16.56
2022-11-10T15:23:57.544Z,16.55
2022-11-10T15:26:26.256Z,16.52
2022-11-10T15:28:53.713Z,16.53
2022-11-10T15:31:24.965Z,16.50
2022-11-10T15:33:53.268Z,16.47
2022-11-10T15:36:32.110Z,16.47
2022-11-10T15:39:04.784Z,16.45
2022-11-10T15:41:33.272Z,16.43
2022-11-10T15:44:14.290Z,16.41
2022-11-10T15:46:41.751Z,16.39
2022-11-10T15:49:10.775Z,16.39
2022-11-10T15:51:39.533Z,16.36
2022-11-10T15:54:10.061Z,16.34
2022-11-10T15:56:37.517Z,16.34
2022-11-10T15:59:05.208Z,16.33
2022-11-10T16:01:32.893Z,16.32
2022-11-10T16:04:00.457Z,16.31
2022-11-10T16:06:30.295Z,16.30
2022-11-10T16:08:59.259Z,16.29
2022-11-10T16:11:26.685Z,15.96
2022-11-10T16:13:54.115Z,15.91
2022-11-10T16:16:23.794Z,16.25
2022-11-10T16:18:51.301Z,16.22
2022-11-10T16:21:20.051Z,16.21
2022-11-10T16:23:47.650Z,15.95
2022-11-10T16:26:21.376Z,16.16
2022-11-10T16:28:49.038Z,16.13
2022-11-10T16:31:16.739Z,16.12
2022-11-10T16:33:44.373Z,16.11
2022-11-10T16:36:15.771Z,16.10
2022-11-10T16:38:43.275Z,16.08
2022-11-10T16:41:13.303Z,16.08
2022-11-10T16:43:42.155Z,16.08
2022-11-10T16:46:17.324Z,16.07
2022-11-10T16:48:45.246Z,15.52
2022-11-10T16:51:14.113Z,16.05
2022-11-10T16:53:41.759Z,16.04
2022-11-10T16:56:13.879Z,16.04
2022-11-10T16:58:42.652Z,15.67
2022-11-10T17:01:12.156Z,15.86
2022-11-10T17:03:41.182Z,15.67
2022-11-10T17:06:13.383Z,16.00
2022-11-10T17:08:40.860Z,16.01
2022-11-10T17:11:08.357Z,16.00
2022-11-10T17:13:35.844Z,15.69
2022-11-10T17:16:06.441Z,15.95
2022-11-10T17:18:34.236Z,15.98
2022-11-10T17:21:02.516Z,15.95
2022-11-10T17:23:30.112Z,15.96
2022-11-10T17:25:57.631Z,15.98
2022-11-10T17:28:25.056Z,15.96
2022-11-10T17:30:52.895Z,15.94
2022-11-10T17:33:22.022Z,15.91
2022-11-10T17:35:50.581Z,15.67
2022-11-10T17:38:20.862Z,15.91
2022-11-10T17:40:48.661Z,15.92
2022-11-10T17:43:16.455Z,15.91
2022-11-10T17:45:43.923Z,15.87
2022-11-10T17:48:11.408Z,15.86
2022-11-10T17:50:41.134Z,15.86
2022-11-10T17:53:13.991Z,15.75
2022-11-10T17:55:41.729Z,15.88
2022-11-10T17:58:09.471Z,15.86
2022-11-10T18:00:36.921Z,15.85
2022-11-10T18:03:08.468Z,15.83
2022-11-10T18:05:36.241Z,15.81
2022-11-10T18:08:05.373Z,15.80
2022-11-10T18:10:33.100Z,15.81
2022-11-10T18:13:00.614Z,15.81
2022-11-10T18:15:28.062Z,15.80
2022-11-10T18:18:00.901Z,15.78
2022-11-10T18:20:28.757Z,15.78
2022-11-10T18:22:56.273Z,15.79
2022-11-10T18:25:25.072Z,15.80
2022-11-10T18:27:56.047Z,15.79
2022-11-10T18:30:23.602Z,15.77
2022-11-10T18:32:51.104Z,15.77
2022-11-10T18:35:18.881Z,15.76
2022-11-10T18:37:46.413Z,15.76
2022-11-10T18:40:14.795Z,15.76
2022-11-10T18:42:43.569Z,15.76
2022-11-10T18:45:12.833Z,15.74
2022-11-10T18:47:40.408Z,15.71
2022-11-10T18:50:09.481Z,15.70
2022-11-10T18:52:37.131Z,15.72
2022-11-10T18:55:04.744Z,15.72
2022-11-10T18:57:32.316Z,15.74
2022-11-10T19:00:01.248Z,15.70
2022-11-10T19:02:28.738Z,15.69
2022-11-10T19:04:56.292Z,15.68
2022-11-10T19:07:23.739Z,15.66
2022-11-10T19:09:51.205Z,15.62
2022-11-10T19:12:22.619Z,15.63
2022-11-10T19:14:53.006Z,15.62
2022-11-10T19:17:21.772Z,15.61
2022-11-10T19:19:55.066Z,15.61
2022-11-10T19:22:23.828Z,15.59
2022-11-10T19:25:07.590Z,15.59
2022-11-10T19:27:36.214Z,15.56
2022-11-10T19:30:04.013Z,15.57
2022-11-10T19:32:33.119Z,15.56
2022-11-10T19:35:00.746Z,15.49
2022-11-10T19:37:32.110Z,15.53
2022-11-10T19:40:01.859Z,15.24
2022-11-10T19:42:29.327Z,15.51
2022-11-10T19:44:57.846Z,15.53
2022-11-10T19:47:25.528Z,15.51
2022-11-10T19:49:54.307Z,15.49
2022-11-10T19:52:21.746Z,15.49
2022-11-10T19:54:49.212Z,15.49
2022-11-10T19:57:16.742Z,15.47
2022-11-10T19:59:44.197Z,15.45
2022-11-10T20:02:13.460Z,15.08
2022-11-10T20:05:01.211Z,15.44
2022-11-10T20:07:47.704Z,15.45
2022-11-10T20:10:15.184Z,15.45
2022-11-10T20:12:42.633Z,15.43
2022-11-10T20:15:11.173Z,15.44
2022-11-10T20:17:38.607Z,15.43
2022-11-10T20:20:07.111Z,15.42
2022-11-10T20:22:35.928Z,15.42
2022-11-10T20:25:03.596Z,15.42
2022-11-10T20:27:31.163Z,15.43
2022-11-10T20:29:58.617Z,15.42
2022-11-10T20:32:26.268Z,15.42
2022-11-10T20:34:53.693Z,15.41
2022-11-10T20:37:21.151Z,15.42
2022-11-10T20:39:49.922Z,15.40
2022-11-10T20:42:17.528Z,15.40
2022-11-10T20:44:44.992Z,15.37
2022-11-10T20:47:12.503Z,15.35
2022-11-10T20:49:40.003Z,15.32
2022-11-10T20:52:07.457Z,15.33
2022-11-10T20:54:34.948Z,15.33
2022-11-10T20:57:04.014Z,15.33
2022-11-10T20:59:31.651Z,15.32
2022-11-10T21:01:59.230Z,15.32
2022-11-10T21:04:26.718Z,15.30
2022-11-10T21:06:54.273Z,15.31
2022-11-10T21:09:21.730Z,15.31
2022-11-10T21:12:06.569Z,14.84
2022-11-10T21:14:35.458Z,15.28
2022-11-10T21:17:03.119Z,15.27
2022-11-10T21:19:33.627Z,15.27
2022-11-10T21:22:01.159Z,15.24
2022-11-10T21:24:29.142Z,15.25
2022-11-10T21:26:56.856Z,15.03
2022-11-10T21:29:24.300Z,15.26
2022-11-10T21:31:53.260Z,15.24
2022-11-10T21:34:20.678Z,15.25
2022-11-10T21:36:48.205Z,15.24
2022-11-10T21:39:15.635Z,15.25
2022-11-10T21:41:43.084Z,15.23
2022-11-10T21:44:10.507Z,15.24
2022-11-10T21:46:38.009Z,15.20
2022-11-10T21:49:08.046Z,15.21
2022-11-10T21:51:35.725Z,15.22
2022-11-10T21:54:03.164Z,15.21
2022-11-10T21:56:30.628Z,15.18
2022-11-10T21:58:58.625Z,15.16
2022-11-10T22:01:26.119Z,15.16
2022-11-10T22:03:53.715Z,15.17
2022-11-10T22:06:22.542Z,15.15
2022-11-10T22:08:50.045Z,15.15
2022-11-10T22:11:36.536Z,15.14
2022-11-10T22:14:30.254Z,15.16
2022-11-10T22:17:15.641Z,14.83
2022-11-10T22:19:44.386Z,15.13
2022-11-10T22:22:14.089Z,15.12
2022-11-10T22:24:41.566Z,15.10
2022-11-10T22:27:09.021Z,15.08
2022-11-10T22:29:36.543Z,15.13
2022-11-10T22:32:04.185Z,15.12
2022-11-10T22:34:31.619Z,15.13
2022-11-10T22:36:59.517Z,15.13
2022-11-10T22:39:48.465Z,15.12
2022-11-10T22:42:33.597Z,15.15
2022-11-10T22:45:01.031Z,15.16
2022-11-10T22:47:48.768Z,15.15
2022-11-10T22:50:16.200Z,15.13
2022-11-10T22:52:43.657Z,15.11
2022-11-10T22:55:12.411Z,15.09
2022-11-10T22:57:40.002Z,15.08
2022-11-10T23:00:09.003Z,15.07
2022-11-10T23:02:36.468Z,15.02
2022-11-10T23:05:03.931Z,15.03
2022-11-10T23:07:31.461Z,15.04
2022-11-10T23:09:58.891Z,15.05
2022-11-10T23:12:27.708Z,15.05
2022-11-10T23:14:55.135Z,15.08
2022-11-10T23:17:22.576Z,15.06
2022-11-10T23:19:50.024Z,15.06
2022-11-10T23:22:17.482Z,15.08
2022-11-10T23:24:44.906Z,15.03
2022-11-10T23:27:12.353Z,15.00
2022-11-10T23:29:41.114Z,14.98
2022-11-10T23:32:08.569Z,14.97
2022-11-10T23:34:35.996Z,14.96
2022-11-10T23:37:03.441Z,14.94
2022-11-10T23:39:30.877Z,14.91
2022-11-10T23:41:58.322Z,14.91
2022-11-10T23:44:25.772Z,14.88
2022-11-10T23:46:54.515Z,14.87
2022-11-10T23:49:21.940Z,14.87
2022-11-10T23:51:49.419Z,14.88
2022-11-10T23:54:16.908Z,14.86
2022-11-10T23:56:44.352Z,14.86
2022-11-10T23:59:11.802Z,14.86
